createdAt,value
2023-09-23T00:02:24.749Z,6.85
2023-09-23T00:04:51.525Z,7.70
2023-09-23T00:07:19.512Z,7.70
2023-09-23T00:09:46.102Z,8.98
2023-09-23T00:12:13.505Z,8.40
2023-09-23T00:14:40.128Z,7.63
2023-09-23T00:17:07.465Z,7.40
2023-09-23T00:19:35.720Z,7.20
2023-09-23T00:22:03.538Z,7.13
2023-09-23T00:24:31.041Z,7.75
2023-09-23T00:27:00.962Z,7.68
2023-09-23T00:29:30.033Z,7.95
2023-09-23T00:31:57.420Z,7.45
2023-09-23T00:34:24.657Z,8.43
2023-09-23T00:36:52.490Z,7.20
2023-09-23T00:39:19.238Z,11.13
2023-09-23T00:41:45.839Z,10.88
2023-09-23T00:44:12.509Z,12.00
2023-09-23T00:46:39.540Z,10.80
2023-09-23T00:49:08.293Z,12.43
2023-09-23T00:51:34.975Z,10.60
2023-09-23T00:54:02.481Z,12.15
2023-09-23T00:56:31.974Z,12.90
2023-09-23T00:58:59.320Z,12.40
2023-09-23T01:01:26.025Z,12.55
2023-09-23T01:03:53.903Z,13.80
2023-09-23T01:06:23.117Z,13.35
2023-09-23T01:08:52.153Z,14.05
2023-09-23T01:11:19.418Z,13.45
2023-09-23T01:13:46.707Z,13.40
2023-09-23T01:16:14.792Z,14.82
2023-09-23T01:18:46.671Z,11.88
2023-09-23T01:21:14.055Z,10.77
2023-09-23T01:23:40.781Z,10.60
2023-09-23T01:26:07.422Z,11.90
2023-09-23T01:28:35.020Z,13.07
2023-09-23T01:31:02.188Z,13.00
2023-09-23T01:33:29.858Z,14.27
2023-09-23T01:35:58.337Z,14.60
2023-09-23T01:40:54.728Z,14.80
2023-09-23T01:43:21.555Z,13.90
2023-09-23T01:45:48.496Z,15.45
2023-09-23T01:48:15.250Z,14.35
2023-09-23T01:50:42.918Z,15.18
2023-09-23T01:53:10.163Z,15.70
2023-09-23T01:55:38.379Z,14.80
2023-09-23T01:58:05.130Z,15.60
2023-09-23T02:00:33.544Z,14.63
2023-09-23T02:03:00.299Z,13.70
2023-09-23T02:05:30.471Z,14.60
2023-09-23T02:07:57.590Z,13.15
2023-09-23T02:10:27.991Z,14.07
2023-09-23T02:12:55.073Z,11.82
2023-09-23T02:15:21.754Z,12.82
2023-09-23T02:17:49.181Z,11.60
2023-09-23T02:20:21.258Z,11.23
2023-09-23T02:22:49.409Z,11.57
2023-09-23T02:25:16.547Z,12.27
2023-09-23T02:27:45.234Z,12.15
2023-09-23T02:30:12.485Z,11.80
2023-09-23T02:32:45.414Z,11.23
2023-09-23T02:35:13.619Z,11.40
2023-09-23T02:37:50.354Z,10.55
2023-09-23T02:40:18.608Z,11.45
2023-09-23T02:42:46.660Z,11.30
2023-09-23T02:45:15.300Z,10.02
2023-09-23T02:47:47.419Z,10.48
2023-09-23T02:50:16.002Z,11.85
2023-09-23T02:55:13.944Z,9.88
2023-09-23T02:57:42.477Z,11.40
2023-09-23T03:00:19.618Z,10.00
2023-09-23T03:02:49.697Z,10.80
2023-09-23T03:05:22.744Z,11.23
2023-09-23T03:07:50.867Z,11.20
2023-09-23T03:10:30.180Z,11.43
2023-09-23T03:13:03.583Z,11.27
2023-09-23T03:15:35.524Z,11.10
2023-09-23T03:18:03.600Z,10.98
2023-09-23T03:20:31.425Z,11.93
2023-09-23T03:22:58.270Z,11.07
2023-09-23T03:25:24.994Z,11.27
2023-09-23T03:27:53.540Z,11.60
2023-09-23T03:32:47.949Z,11.38
2023-09-23T03:35:18.755Z,11.07
2023-09-23T03:37:51.902Z,10.63
2023-09-23T03:40:25.734Z,10.43
2023-09-23T03:42:52.439Z,9.77
2023-09-23T03:45:19.341Z,10.38
2023-09-23T03:47:47.706Z,10.65
2023-09-23T03:50:15.534Z,11.48
2023-09-23T03:52:43.174Z,11.35
2023-09-23T03:55:12.454Z,10.80
2023-09-23T03:57:39.998Z,10.75
2023-09-23T04:00:21.269Z,11.00
2023-09-23T04:02:48.938Z,10.45
2023-09-23T04:05:16.415Z,9.43
2023-09-23T04:07:52.705Z,10.02
2023-09-23T04:10:29.612Z,10.85
2023-09-23T04:12:56.656Z,10.50
2023-09-23T04:15:23.658Z,10.20
2023-09-23T04:17:50.371Z,10.02
2023-09-23T04:20:17.121Z,10.02
2023-09-23T04:22:44.178Z,8.80
2023-09-23T04:25:12.063Z,9.35
2023-09-23T04:27:39.227Z,8.93
2023-09-23T04:30:10.723Z,9.65
2023-09-23T04:32:40.345Z,9.45
2023-09-23T04:35:14.106Z,8.45
2023-09-23T04:37:41.058Z,8.20
2023-09-23T04:40:12.661Z,8.63
2023-09-23T04:42:40.335Z,9.07
2023-09-23T04:45:09.043Z,9.43
2023-09-23T04:47:39.288Z,9.38
2023-09-23T04:50:07.043Z,8.73
2023-09-23T04:52:33.756Z,8.88
2023-09-23T04:55:00.936Z,9.35
2023-09-23T04:57:28.044Z,10.43
2023-09-23T04:59:55.878Z,9.40
2023-09-23T05:02:22.632Z,10.73
2023-09-23T05:04:54.382Z,12.10
2023-09-23T05:07:21.752Z,11.88
2023-09-23T05:09:48.542Z,11.93
2023-09-23T05:12:15.681Z,12.13
2023-09-23T05:14:43.875Z,11.50
2023-09-23T05:17:15.340Z,11.68
2023-09-23T05:19:43.451Z,12.75
2023-09-23T05:22:11.856Z,12.73
2023-09-23T05:24:39.496Z,13.50
2023-09-23T05:27:06.853Z,11.98
2023-09-23T05:29:33.608Z,11.68
2023-09-23T05:32:00.315Z,12.55
2023-09-23T05:34:26.911Z,12.02
2023-09-23T05:36:54.597Z,11.60
2023-09-23T05:39:21.323Z,11.63
2023-09-23T05:41:52.545Z,11.70
2023-09-23T05:44:20.210Z,12.60
2023-09-23T05:46:49.577Z,14.00
2023-09-23T05:49:16.626Z,15.18
2023-09-23T05:51:45.255Z,15.80
2023-09-23T05:54:12.275Z,16.25
2023-09-23T05:56:39.362Z,14.88
2023-09-23T05:59:08.610Z,16.33
2023-09-23T06:01:36.588Z,16.38
2023-09-23T06:04:05.101Z,17.08
2023-09-23T06:08:58.897Z,15.60
2023-09-23T06:11:25.665Z,16.42
2023-09-23T06:13:52.387Z,21.05
2023-09-23T06:16:19.045Z,19.10
2023-09-23T06:18:45.657Z,19.45
2023-09-23T06:21:12.367Z,19.65
2023-09-23T06:23:39.008Z,18.20
2023-09-23T06:26:07.369Z,21.83
2023-09-23T06:31:03.004Z,18.15
2023-09-23T06:33:30.565Z,18.23
2023-09-23T06:36:02.447Z,19.30
2023-09-23T06:38:29.616Z,18.75
2023-09-23T06:40:57.091Z,18.88
2023-09-23T06:43:23.765Z,19.42
2023-09-23T06:45:57.254Z,18.30
2023-09-23T06:48:25.104Z,17.85
2023-09-23T06:51:03.022Z,19.80
2023-09-23T06:53:30.548Z,17.65
2023-09-23T06:55:57.308Z,17.67
2023-09-23T06:58:24.237Z,18.73
2023-09-23T07:00:50.906Z,18.48
2023-09-23T07:03:17.682Z,19.15
2023-09-23T07:05:44.663Z,18.27
2023-09-23T07:08:11.762Z,18.73
2023-09-23T07:10:39.920Z,20.73
2023-09-23T07:13:08.794Z,19.77
2023-09-23T07:15:38.334Z,17.95
2023-09-23T07:18:06.137Z,19.38
2023-09-23T07:20:33.200Z,21.40
2023-09-23T07:23:00.946Z,22.08
2023-09-23T07:25:29.361Z,21.10
2023-09-23T07:27:58.385Z,20.83
2023-09-23T07:30:24.997Z,21.35
2023-09-23T07:32:51.571Z,23.52
2023-09-23T07:35:18.915Z,22.27
2023-09-23T07:37:46.131Z,23.30
2023-09-23T07:40:12.807Z,21.48
2023-09-23T07:42:39.397Z,23.63
2023-09-23T07:45:06.626Z,23.05
2023-09-23T07:47:33.410Z,23.88
2023-09-23T07:50:00.394Z,21.33
2023-09-23T07:52:27.120Z,21.35
2023-09-23T07:54:53.718Z,21.20
2023-09-23T07:57:20.317Z,22.23
2023-09-23T07:59:47.129Z,20.35
2023-09-23T08:02:13.913Z,18.65
2023-09-23T08:04:40.634Z,19.63
2023-09-23T08:07:07.932Z,20.10
2023-09-23T08:09:34.576Z,19.10
2023-09-23T08:12:01.141Z,18.45
2023-09-23T08:14:27.874Z,17.45
2023-09-23T08:16:54.692Z,17.00
2023-09-23T08:19:21.353Z,15.77
2023-09-23T08:21:47.953Z,16.00
2023-09-23T08:24:14.535Z,15.35
2023-09-23T08:26:41.243Z,15.35
2023-09-23T08:29:09.392Z,15.67
2023-09-23T08:31:36.061Z,14.70
2023-09-23T08:34:05.143Z,14.77
2023-09-23T08:36:32.740Z,15.27
2023-09-23T08:38:59.962Z,14.70
2023-09-23T08:41:27.082Z,14.27
2023-09-23T08:43:55.392Z,13.70
2023-09-23T08:46:22.838Z,13.40
2023-09-23T08:48:49.873Z,13.10
2023-09-23T08:51:20.489Z,14.32
2023-09-23T08:53:48.098Z,13.52
2023-09-23T08:56:14.883Z,12.23
2023-09-23T08:58:43.352Z,13.55
2023-09-23T09:01:11.151Z,14.63
2023-09-23T09:03:38.727Z,14.10
2023-09-23T09:06:16.418Z,13.68
2023-09-23T09:08:43.921Z,14.07
2023-09-23T09:11:11.187Z,14.68
2023-09-23T09:13:38.263Z,14.30
2023-09-23T09:16:08.301Z,14.35
2023-09-23T09:18:34.977Z,13.50
2023-09-23T09:21:02.094Z,14.00
2023-09-23T09:23:34.077Z,14.48
2023-09-23T09:26:00.965Z,14.77
2023-09-23T09:28:27.868Z,14.07
2023-09-23T09:30:59.363Z,13.07
2023-09-23T09:33:28.601Z,14.25
2023-09-23T09:35:58.524Z,13.88
2023-09-23T09:38:29.017Z,13.35
2023-09-23T09:41:05.896Z,14.55
2023-09-23T09:43:34.472Z,13.55
2023-09-23T09:46:09.462Z,14.05
2023-09-23T09:48:40.705Z,14.38
2023-09-23T09:51:08.456Z,13.55
2023-09-23T09:53:37.919Z,13.18
2023-09-23T09:56:08.331Z,12.85
2023-09-23T09:58:39.572Z,13.63
2023-09-23T10:01:13.080Z,14.30
2023-09-23T10:03:51.666Z,13.02
2023-09-23T10:06:23.806Z,13.20
2023-09-23T10:08:50.851Z,11.82
2023-09-23T10:11:18.265Z,12.88
2023-09-23T10:13:45.136Z,13.70
2023-09-23T10:16:18.915Z,13.73
2023-09-23T10:18:55.169Z,13.82
2023-09-23T10:21:23.175Z,14.27
2023-09-23T10:23:51.570Z,13.45
2023-09-23T10:26:20.349Z,12.38
2023-09-23T10:29:16.668Z,12.63
2023-09-23T10:31:43.319Z,12.93
2023-09-23T10:34:11.541Z,13.30
2023-09-23T10:36:38.330Z,11.27
2023-09-23T10:39:07.348Z,12.07
2023-09-23T10:41:36.270Z,12.65
2023-09-23T10:44:06.112Z,11.82
2023-09-23T10:46:33.051Z,11.02
2023-09-23T10:49:02.531Z,12.05
2023-09-23T10:51:29.805Z,11.40
2023-09-23T10:53:57.288Z,11.38
2023-09-23T10:56:24.137Z,11.07
2023-09-23T10:58:53.708Z,10.93
2023-09-23T11:01:22.211Z,10.50
2023-09-23T11:03:49.256Z,10.63
2023-09-23T11:06:17.719Z,10.63
2023-09-23T11:08:45.521Z,9.95
2023-09-23T11:11:13.946Z,9.07
2023-09-23T11:13:40.842Z,8.80
2023-09-23T11:16:11.308Z,9.73
2023-09-23T11:18:39.190Z,9.80
2023-09-23T11:21:06.366Z,11.00
2023-09-23T11:23:34.168Z,9.70
2023-09-23T11:26:01.195Z,8.50
2023-09-23T11:28:28.778Z,8.88
2023-09-23T11:30:56.964Z,9.23
2023-09-23T11:33:23.644Z,9.30
2023-09-23T11:35:50.378Z,8.05
2023-09-23T11:38:18.360Z,7.70
2023-09-23T11:40:47.048Z,7.82
2023-09-23T11:43:13.738Z,7.45
2023-09-23T11:45:43.519Z,7.15
2023-09-23T11:48:11.084Z,6.30
2023-09-23T11:50:38.583Z,6.65
2023-09-23T11:53:06.211Z,6.30
2023-09-23T11:55:34.347Z,6.17
2023-09-23T11:58:01.638Z,5.53
2023-09-23T12:00:30.025Z,4.90
2023-09-23T12:02:57.182Z,4.38
2023-09-23T12:05:30.441Z,4.82
2023-09-23T12:08:00.366Z,4.75
2023-09-23T12:10:28.791Z,5.28
2023-09-23T12:12:57.516Z,4.68
2023-09-23T12:15:24.935Z,5.00
2023-09-23T12:17:51.843Z,5.18
2023-09-23T12:20:19.901Z,4.93
2023-09-23T12:22:47.254Z,5.03
2023-09-23T12:25:13.880Z,3.92
2023-09-23T12:27:40.584Z,3.85
2023-09-23T12:30:07.816Z,3.97
2023-09-23T12:32:34.696Z,4.72
2023-09-23T12:35:01.436Z,3.72
2023-09-23T12:37:28.740Z,4.80
2023-09-23T12:39:57.059Z,4.53
2023-09-23T12:42:24.310Z,4.05
2023-09-23T12:44:51.022Z,4.78
2023-09-23T12:47:17.727Z,3.75
2023-09-23T12:49:45.212Z,3.40
2023-09-23T12:52:12.738Z,2.58
2023-09-23T12:54:39.473Z,2.85
2023-09-23T12:57:06.171Z,3.13
2023-09-23T12:59:32.841Z,2.83
2023-09-23T13:01:59.604Z,2.70
2023-09-23T13:04:26.607Z,2.30
2023-09-23T13:06:53.346Z,2.00
2023-09-23T13:09:20.149Z,2.05
2023-09-23T13:11:46.767Z,2.30
2023-09-23T13:14:13.478Z,2.20
2023-09-23T13:16:40.083Z,2.40
2023-09-23T13:19:06.736Z,3.00
2023-09-23T13:21:33.422Z,2.17
2023-09-23T13:24:00.475Z,2.20
2023-09-23T13:26:27.552Z,2.25
2023-09-23T13:28:54.633Z,1.92
2023-09-23T13:31:21.404Z,1.90
2023-09-23T13:33:48.203Z,2.60
2023-09-23T13:36:14.878Z,2.00
2023-09-23T13:38:42.938Z,1.63
2023-09-23T13:41:09.855Z,1.95
2023-09-23T13:43:36.449Z,1.75
2023-09-23T13:46:03.152Z,1.85
2023-09-23T13:48:30.350Z,2.00
2023-09-23T13:50:57.106Z,1.70
2023-09-23T13:53:23.749Z,1.55
2023-09-23T13:55:50.576Z,1.92
2023-09-23T13:58:17.147Z,1.45
2023-09-23T14:00:43.861Z,1.30
2023-09-23T14:03:10.489Z,1.38
2023-09-23T14:05:37.301Z,1.80
2023-09-23T14:08:04.221Z,1.60
2023-09-23T14:10:31.864Z,1.40
2023-09-23T14:12:58.450Z,1.20
2023-09-23T14:15:25.104Z,1.35
2023-09-23T14:17:51.744Z,1.42
2023-09-23T14:20:18.437Z,1.65
2023-09-23T14:22:47.099Z,1.35
2023-09-23T14:25:15.334Z,1.17
2023-09-23T14:27:42.353Z,1.20
2023-09-23T14:30:09.817Z,1.30
2023-09-23T14:32:36.599Z,1.30
2023-09-23T14:35:04.144Z,1.30
2023-09-23T14:37:33.762Z,1.00
2023-09-23T14:40:01.496Z,1.20
2023-09-23T14:42:28.424Z,1.50
2023-09-23T14:44:55.078Z,1.20
2023-09-23T14:47:21.831Z,1.50
2023-09-23T14:49:48.654Z,1.30
2023-09-23T14:52:15.383Z,1.17
2023-09-23T14:54:42.922Z,1.30
2023-09-23T14:57:09.688Z,1.52
2023-09-23T14:59:37.097Z,1.40
2023-09-23T15:02:05.066Z,1.23
2023-09-23T15:04:31.995Z,1.25
2023-09-23T15:07:00.676Z,0.93
2023-09-23T15:09:28.035Z,1.25
2023-09-23T15:11:54.765Z,1.23
2023-09-23T15:14:21.491Z,1.10
2023-09-23T15:16:50.764Z,1.10
2023-09-23T15:19:20.564Z,1.55
2023-09-23T15:21:47.313Z,1.20
2023-09-23T15:24:18.105Z,1.05
2023-09-23T15:26:45.300Z,1.20
2023-09-23T15:29:12.353Z,1.38
2023-09-23T15:31:39.024Z,1.23
2023-09-23T15:34:08.115Z,1.55
2023-09-23T15:36:34.682Z,1.83
2023-09-23T15:39:01.271Z,1.70
2023-09-23T15:41:27.924Z,1.17
2023-09-23T15:43:54.647Z,1.30
2023-09-23T15:46:21.317Z,1.50
2023-09-23T15:48:48.167Z,1.60
2023-09-23T15:51:16.293Z,1.55
2023-09-23T15:53:43.723Z,1.42
2023-09-23T15:56:10.778Z,1.75
2023-09-23T15:58:39.038Z,1.20
2023-09-23T16:01:09.268Z,1.30
2023-09-23T16:03:36.413Z,0.95
2023-09-23T16:06:03.781Z,1.25
2023-09-23T16:08:30.556Z,1.45
2023-09-23T16:10:57.211Z,1.45
2023-09-23T16:13:23.846Z,1.33
2023-09-23T16:15:50.759Z,1.40
2023-09-23T16:18:20.007Z,1.42
2023-09-23T16:20:48.684Z,1.42
2023-09-23T16:23:15.513Z,1.13
2023-09-23T16:25:42.272Z,1.60
2023-09-23T16:28:08.907Z,1.50
2023-09-23T16:30:35.658Z,1.30
2023-09-23T16:33:02.389Z,1.20
2023-09-23T16:35:29.121Z,1.00
2023-09-23T16:37:55.797Z,1.17
2023-09-23T16:40:22.818Z,1.17
2023-09-23T16:42:49.546Z,1.10
2023-09-23T16:45:16.562Z,1.27
2023-09-23T16:47:45.139Z,1.30
2023-09-23T16:50:12.199Z,1.52
2023-09-23T16:52:38.926Z,1.25
2023-09-23T16:55:05.830Z,1.00
2023-09-23T16:57:32.541Z,1.42
2023-09-23T16:59:59.137Z,1.10
2023-09-23T17:02:26.017Z,1.48
2023-09-23T17:04:52.682Z,1.52
2023-09-23T17:07:19.274Z,1.40
2023-09-23T17:09:46.002Z,1.80
2023-09-23T17:12:13.931Z,1.67
2023-09-23T17:14:40.800Z,1.45
2023-09-23T17:17:07.537Z,1.42
2023-09-23T17:19:34.534Z,1.50
2023-09-23T17:22:01.255Z,1.73
2023-09-23T17:24:29.713Z,1.50
2023-09-23T17:26:56.476Z,1.73
2023-09-23T17:29:23.239Z,1.65
2023-09-23T17:31:50.319Z,1.73
2023-09-23T17:34:17.100Z,1.63
2023-09-23T17:36:43.838Z,1.63
2023-09-23T17:39:12.078Z,1.45
2023-09-23T17:41:39.180Z,1.65
2023-09-23T17:44:07.145Z,2.08
2023-09-23T17:46:34.214Z,1.98
2023-09-23T17:49:00.934Z,1.83
2023-09-23T17:51:27.777Z,1.90
2023-09-23T17:53:54.423Z,1.70
2023-09-23T17:56:23.147Z,1.85
2023-09-23T17:58:50.350Z,1.67
2023-09-23T18:01:17.228Z,1.50
2023-09-23T18:03:44.148Z,2.00
2023-09-23T18:06:10.970Z,1.55
2023-09-23T18:08:37.652Z,1.65
2023-09-23T18:11:04.358Z,1.95
2023-09-23T18:13:31.003Z,1.92
2023-09-23T18:15:57.880Z,1.95
2023-09-23T18:18:27.891Z,2.25
2023-09-23T18:20:55.934Z,1.65
2023-09-23T18:23:22.783Z,2.00
2023-09-23T18:25:49.951Z,2.15
2023-09-23T18:28:16.660Z,1.67
2023-09-23T18:30:43.314Z,2.22
2023-09-23T18:33:10.072Z,1.95
2023-09-23T18:35:36.973Z,2.45
2023-09-23T18:38:03.897Z,2.00
2023-09-23T18:40:31.407Z,1.95
2023-09-23T18:42:58.076Z,2.00
2023-09-23T18:45:24.917Z,1.83
2023-09-23T18:48:00.599Z,1.85
2023-09-23T18:50:34.487Z,1.83
2023-09-23T18:53:01.426Z,2.33
2023-09-23T18:55:28.404Z,2.05
2023-09-23T18:57:55.092Z,2.45
2023-09-23T19:00:21.743Z,2.53
2023-09-23T19:02:49.374Z,2.33
2023-09-23T19:05:16.416Z,1.98
2023-09-23T19:07:43.011Z,1.98
2023-09-23T19:10:11.982Z,2.65
2023-09-23T19:12:39.166Z,2.30
2023-09-23T19:15:06.897Z,2.55
2023-09-23T19:17:33.707Z,2.15
2023-09-23T19:20:00.444Z,2.22
2023-09-23T19:22:27.050Z,2.00
2023-09-23T19:24:53.669Z,2.30
2023-09-23T19:27:20.445Z,2.50
2023-09-23T19:29:49.961Z,2.00
2023-09-23T19:32:16.889Z,2.15
2023-09-23T19:34:43.606Z,2.30
2023-09-23T19:37:11.106Z,2.50
2023-09-23T19:39:38.062Z,2.42
2023-09-23T19:42:05.311Z,2.50
2023-09-23T19:44:32.760Z,2.80
2023-09-23T19:47:01.751Z,2.23
2023-09-23T19:49:28.943Z,2.70
2023-09-23T19:51:56.480Z,2.83
2023-09-23T19:54:23.920Z,2.80
2023-09-23T19:56:50.882Z,2.60
2023-09-23T19:59:20.714Z,2.80
2023-09-23T20:01:48.243Z,2.92
2023-09-23T20:04:15.161Z,2.78
2023-09-23T20:06:42.653Z,3.17
2023-09-23T20:09:10.068Z,3.17
2023-09-23T20:11:37.113Z,3.45
2023-09-23T20:14:04.027Z,3.47
2023-09-23T20:16:30.740Z,3.22
2023-09-23T20:18:58.290Z,3.20
2023-09-23T20:21:24.910Z,3.33
2023-09-23T20:23:52.696Z,3.22
2023-09-23T20:26:21.138Z,3.10
2023-09-23T20:28:49.281Z,3.92
2023-09-23T20:31:16.720Z,4.10
2023-09-23T20:33:44.135Z,4.03
2023-09-23T20:36:10.926Z,4.07
2023-09-23T20:38:40.223Z,3.95
2023-09-23T20:41:07.827Z,4.07
2023-09-23T20:43:37.181Z,3.80
2023-09-23T20:46:04.683Z,4.95
2023-09-23T20:48:31.759Z,4.63
2023-09-23T20:50:58.449Z,4.25
2023-09-23T20:53:25.395Z,5.13
2023-09-23T20:55:52.044Z,4.95
2023-09-23T20:58:19.486Z,4.45
2023-09-23T21:00:46.201Z,5.30
2023-09-23T21:03:15.755Z,5.00
2023-09-23T21:05:43.723Z,5.03
2023-09-23T21:08:11.475Z,5.30
2023-09-23T21:10:38.566Z,4.47
2023-09-23T21:13:05.386Z,5.13
2023-09-23T21:15:32.399Z,4.68
2023-09-23T21:18:02.077Z,5.38
2023-09-23T21:20:29.211Z,4.65
2023-09-23T21:22:56.050Z,4.80
2023-09-23T21:25:23.612Z,5.15
2023-09-23T21:27:51.129Z,5.07
2023-09-23T21:30:17.774Z,6.20
2023-09-23T21:32:44.600Z,6.32
2023-09-23T21:35:12.459Z,5.57
2023-09-23T21:37:39.085Z,5.03
2023-09-23T21:40:09.675Z,5.95
2023-09-23T21:42:36.385Z,6.47
2023-09-23T21:45:03.178Z,6.10
2023-09-23T21:47:30.094Z,6.03
2023-09-23T21:49:56.867Z,5.97
2023-09-23T21:52:23.449Z,5.78
2023-09-23T21:54:50.124Z,6.82
2023-09-23T21:57:16.877Z,6.45
2023-09-23T21:59:44.319Z,5.20
2023-09-23T22:02:11.070Z,6.13
2023-09-23T22:04:38.709Z,5.55
2023-09-23T22:07:06.294Z,5.53
2023-09-23T22:09:33.471Z,5.32
2023-09-23T22:12:00.100Z,4.63
2023-09-23T22:14:27.953Z,5.13
2023-09-23T22:16:55.846Z,5.70
2023-09-23T22:19:22.591Z,5.47
2023-09-23T22:21:49.730Z,5.78
2023-09-23T22:24:17.988Z,6.07
2023-09-23T22:26:45.060Z,4.95
2023-09-23T22:29:13.631Z,5.97
2023-09-23T22:34:07.613Z,6.03
2023-09-23T22:36:34.306Z,5.80
2023-09-23T22:39:01.257Z,6.38
2023-09-23T22:41:32.467Z,6.30
2023-09-23T22:44:00.241Z,7.10
2023-09-23T22:46:27.645Z,6.88
2023-09-23T22:48:56.350Z,6.47
2023-09-23T22:51:22.978Z,7.28
2023-09-23T22:53:51.088Z,6.65
2023-09-23T22:59:56.493Z,7.07
2023-09-23T23:02:23.206Z,7.45
2023-09-23T23:04:53.183Z,8.10
2023-09-23T23:07:19.966Z,7.53
2023-09-23T23:09:49.166Z,9.30
2023-09-23T23:12:15.770Z,7.63
2023-09-23T23:14:42.408Z,8.77
2023-09-23T23:17:09.095Z,7.75
2023-09-23T23:19:35.949Z,8.27
2023-09-23T23:22:02.539Z,7.45
2023-09-23T23:24:29.145Z,7.00
2023-09-23T23:26:56.317Z,7.43
2023-09-23T23:29:25.129Z,8.20
2023-09-23T23:31:53.138Z,6.68
2023-09-23T23:34:20.821Z,7.03
2023-09-23T23:36:47.952Z,7.18
2023-09-23T23:39:15.222Z,8.30
2023-09-23T23:41:43.018Z,7.35
2023-09-23T23:45:21.160Z,8.05
2023-09-23T23:47:57.123Z,6.88
2023-09-23T23:50:39.474Z,8.05
2023-09-23T23:53:29.170Z,8.07
